createdAt,value
2023-04-07T00:02:48.933Z,100.00
2023-04-07T00:05:37.798Z,100.00
2023-04-07T00:08:28.084Z,100.00
2023-04-07T00:11:17.054Z,100.00
2023-04-07T00:14:05.969Z,100.00
2023-04-07T00:16:55.073Z,100.00
2023-04-07T00:19:43.902Z,100.00
2023-04-07T00:22:32.804Z,100.00
2023-04-07T00:25:23.009Z,100.00
2023-04-07T00:28:11.990Z,100.00
2023-04-07T00:31:01.321Z,100.00
2023-04-07T00:33:50.118Z,100.00
2023-04-07T00:36:39.096Z,100.00
2023-04-07T00:39:28.041Z,100.00
2023-04-07T00:42:18.629Z,100.00
2023-04-07T00:45:10.201Z,100.00
2023-04-07T00:47:59.840Z,100.00
2023-04-07T00:50:48.767Z,100.00
2023-04-07T00:53:37.751Z,100.00
2023-04-07T00:56:27.022Z,100.00
2023-04-07T00:59:17.848Z,100.00
2023-04-07T01:02:15.670Z,100.00
2023-04-07T01:05:15.768Z,100.00
2023-04-07T01:08:16.103Z,100.00
2023-04-07T01:11:18.963Z,100.00
2023-04-07T01:14:10.830Z,100.00
2023-04-07T01:17:08.881Z,100.00
2023-04-07T01:20:03.429Z,100.00
2023-04-07T01:22:57.104Z,100.00
2023-04-07T01:26:08.741Z,100.00
2023-04-07T01:29:19.539Z,100.00
2023-04-07T01:32:13.468Z,100.00
2023-04-07T01:35:06.276Z,100.00
2023-04-07T01:37:57.903Z,100.00
2023-04-07T01:40:50.744Z,100.00
2023-04-07T01:43:43.894Z,100.00
2023-04-07T01:46:35.993Z,100.00
2023-04-07T01:49:27.241Z,100.00
2023-04-07T01:52:16.503Z,100.00
2023-04-07T01:55:07.079Z,100.00
2023-04-07T01:57:59.863Z,100.00
2023-04-07T02:00:50.806Z,100.00
2023-04-07T02:03:54.107Z,100.00
2023-04-07T02:06:51.331Z,100.00
2023-04-07T02:09:44.412Z,100.00
2023-04-07T02:12:36.112Z,100.00
2023-04-07T02:15:34.047Z,100.00
2023-04-07T02:18:24.263Z,100.00
2023-04-07T02:21:16.216Z,100.00
2023-04-07T02:24:08.725Z,100.00
2023-04-07T02:26:57.752Z,100.00
2023-04-07T02:29:47.045Z,100.00
2023-04-07T02:32:36.707Z,100.00
2023-04-07T02:35:25.918Z,100.00
2023-04-07T02:38:16.310Z,100.00
2023-04-07T02:41:06.630Z,100.00
2023-04-07T02:43:55.760Z,100.00
2023-04-07T02:46:45.269Z,100.00
2023-04-07T02:49:34.462Z,100.00
2023-04-07T02:52:23.271Z,100.00
2023-04-07T02:55:13.769Z,100.00
2023-04-07T02:58:03.020Z,100.00
2023-04-07T03:01:06.837Z,100.00
2023-04-07T03:03:57.319Z,100.00
2023-04-07T03:06:47.670Z,100.00
2023-04-07T03:09:37.965Z,100.00
2023-04-07T03:12:28.160Z,100.00
2023-04-07T03:15:18.849Z,100.00
2023-04-07T03:18:09.804Z,100.00
2023-04-07T03:20:59.664Z,100.00
2023-04-07T03:23:49.080Z,100.00
2023-04-07T03:26:38.408Z,100.00
2023-04-07T03:29:34.002Z,100.00
2023-04-07T03:32:24.709Z,100.00
2023-04-07T03:35:14.391Z,100.00
2023-04-07T03:38:03.184Z,100.00
2023-04-07T03:40:52.333Z,100.00
2023-04-07T03:43:43.209Z,100.00
2023-04-07T03:46:34.602Z,100.00
2023-04-07T03:49:24.132Z,100.00
2023-04-07T03:52:13.874Z,100.00
2023-04-07T03:55:02.914Z,100.00
2023-04-07T03:57:54.105Z,100.00
2023-04-07T04:00:43.087Z,100.00
2023-04-07T04:03:36.299Z,100.00
2023-04-07T04:06:38.939Z,100.00
2023-04-07T04:09:40.099Z,100.00
2023-04-07T04:12:29.184Z,100.00
2023-04-07T04:15:27.336Z,100.00
2023-04-07T04:18:16.576Z,100.00
2023-04-07T04:21:09.696Z,100.00
2023-04-07T04:24:01.526Z,100.00
2023-04-07T04:26:52.106Z,100.00
2023-04-07T04:29:41.494Z,100.00
2023-04-07T04:32:33.626Z,100.00
2023-04-07T04:35:23.045Z,100.00
2023-04-07T04:38:28.250Z,100.00
2023-04-07T04:41:25.558Z,100.00
2023-04-07T04:44:14.861Z,100.00
2023-04-07T04:47:04.808Z,100.00
2023-04-07T04:49:54.359Z,100.00
2023-04-07T04:52:43.825Z,100.00
2023-04-07T04:55:44.101Z,100.00
2023-04-07T04:58:33.189Z,100.00
2023-04-07T05:01:24.526Z,100.00
2023-04-07T05:04:20.279Z,100.00
2023-04-07T05:07:17.395Z,100.00
2023-04-07T05:10:08.027Z,100.00
2023-04-07T05:13:01.276Z,100.00
2023-04-07T05:15:50.313Z,100.00
2023-04-07T05:18:39.227Z,100.00
2023-04-07T05:21:28.257Z,100.00
2023-04-07T05:24:20.623Z,100.00
2023-04-07T05:27:14.987Z,100.00
2023-04-07T05:30:08.140Z,100.00
2023-04-07T05:32:58.086Z,100.00
2023-04-07T05:35:59.265Z,100.00
2023-04-07T05:38:48.106Z,100.00
2023-04-07T05:41:40.466Z,100.00
2023-04-07T05:44:29.476Z,100.00
2023-04-07T05:47:20.337Z,100.00
2023-04-07T05:50:14.098Z,100.00
2023-04-07T05:53:04.870Z,100.00
2023-04-07T05:55:53.873Z,100.00
2023-04-07T05:59:18.023Z,100.00
2023-04-07T06:02:09.266Z,100.00
2023-04-07T06:05:00.285Z,100.00
2023-04-07T06:07:49.441Z,100.00
2023-04-07T06:10:38.306Z,100.00
2023-04-07T06:13:27.717Z,100.00
2023-04-07T06:16:18.207Z,100.00
2023-04-07T06:19:09.195Z,100.00
2023-04-07T06:22:00.263Z,100.00
2023-04-07T06:24:49.102Z,100.00
2023-04-07T06:27:38.014Z,100.00
2023-04-07T06:30:28.017Z,100.00
2023-04-07T06:33:17.250Z,100.00
2023-04-07T06:36:06.616Z,100.00
2023-04-07T06:38:59.180Z,100.00
2023-04-07T06:41:48.885Z,100.00
2023-04-07T06:44:37.848Z,100.00
2023-04-07T06:47:26.679Z,100.00
2023-04-07T06:50:15.593Z,100.00
2023-04-07T06:53:04.458Z,100.00
2023-04-07T06:56:05.821Z,100.00
2023-04-07T06:58:54.769Z,100.00
2023-04-07T07:01:43.822Z,100.00
2023-04-07T07:04:33.057Z,100.00
2023-04-07T07:07:22.005Z,100.00
2023-04-07T07:10:11.814Z,100.00
2023-04-07T07:13:02.060Z,100.00
2023-04-07T07:15:51.423Z,100.00
2023-04-07T07:18:40.357Z,100.00
2023-04-07T07:21:29.174Z,100.00
2023-04-07T07:24:18.003Z,100.00
2023-04-07T07:27:06.786Z,100.00
2023-04-07T07:29:56.957Z,100.00
2023-04-07T07:32:45.908Z,100.00
2023-04-07T07:35:34.855Z,100.00
2023-04-07T07:38:24.014Z,100.00
2023-04-07T07:41:12.882Z,100.00
2023-04-07T07:44:01.811Z,100.00
2023-04-07T07:46:52.208Z,100.00
2023-04-07T07:49:42.109Z,100.00
2023-04-07T07:52:31.224Z,100.00
2023-04-07T07:55:20.664Z,100.00
2023-04-07T07:58:09.613Z,100.00
2023-04-07T08:00:58.443Z,100.00
2023-04-07T08:03:48.926Z,100.00
2023-04-07T08:06:38.228Z,100.00
2023-04-07T08:09:27.284Z,100.00
2023-04-07T08:12:16.176Z,100.00
2023-04-07T08:15:06.139Z,100.00
2023-04-07T08:17:56.232Z,100.00
2023-04-07T08:20:47.497Z,100.00
2023-04-07T08:23:36.480Z,100.00
2023-04-07T08:26:25.760Z,100.00
2023-04-07T08:29:14.703Z,98.88
2023-04-07T08:32:03.492Z,100.00
2023-04-07T08:34:52.413Z,100.00
2023-04-07T08:37:44.252Z,99.63
2023-04-07T08:40:35.261Z,96.48
2023-04-07T08:43:25.400Z,95.74
2023-04-07T08:46:17.199Z,92.80
2023-04-07T08:49:13.780Z,94.39
2023-04-07T08:52:10.867Z,93.63
2023-04-07T08:55:02.960Z,93.30
2023-04-07T08:57:54.132Z,91.93
2023-04-07T09:00:49.182Z,95.07
2023-04-07T09:03:39.426Z,93.19
2023-04-07T09:06:28.970Z,100.00
2023-04-07T09:09:17.866Z,100.00
2023-04-07T09:12:08.245Z,98.41
2023-04-07T09:14:57.409Z,95.11
2023-04-07T09:17:46.562Z,95.29
2023-04-07T09:20:57.829Z,93.93
2023-04-07T09:23:48.192Z,96.47
2023-04-07T09:26:37.217Z,93.88
2023-04-07T09:29:27.383Z,93.96
2023-04-07T09:32:38.738Z,95.72
2023-04-07T09:35:28.849Z,95.99
2023-04-07T09:38:17.792Z,96.48
2023-04-07T09:41:11.817Z,91.71
2023-04-07T09:44:00.710Z,96.44
2023-04-07T09:46:54.191Z,92.76
2023-04-07T09:49:53.686Z,88.94
2023-04-07T09:52:53.464Z,87.08
2023-04-07T09:55:43.908Z,86.54
2023-04-07T09:58:32.961Z,84.94
2023-04-07T10:01:23.436Z,90.83
2023-04-07T10:04:14.195Z,83.36
2023-04-07T10:07:03.674Z,87.37
2023-04-07T10:09:52.836Z,86.81
2023-04-07T10:12:43.336Z,82.99
2023-04-07T10:15:32.372Z,90.20
2023-04-07T10:18:24.078Z,88.14
2023-04-07T10:21:18.213Z,78.77
2023-04-07T10:24:23.207Z,82.65
2023-04-07T10:27:20.800Z,73.68
2023-04-07T10:30:19.343Z,64.96
2023-04-07T10:33:08.219Z,61.63
2023-04-07T10:36:08.108Z,59.39
2023-04-07T10:39:25.971Z,57.70
2023-04-07T10:42:48.705Z,53.78
2023-04-07T10:46:01.936Z,47.16
2023-04-07T10:49:10.540Z,49.85
2023-04-07T10:52:24.272Z,47.97
2023-04-07T10:55:39.198Z,52.03
2023-04-07T10:58:29.914Z,52.18
2023-04-07T11:01:21.803Z,54.00
2023-04-07T11:04:10.699Z,53.76
2023-04-07T11:06:59.719Z,50.90
2023-04-07T11:09:49.711Z,52.14
2023-04-07T11:12:40.769Z,51.89
2023-04-07T11:15:29.705Z,51.25
2023-04-07T11:18:21.082Z,48.00
2023-04-07T11:21:10.360Z,49.21
2023-04-07T11:23:59.503Z,46.76
2023-04-07T11:26:50.506Z,47.21
2023-04-07T11:29:41.037Z,44.51
2023-04-07T11:32:30.421Z,43.86
2023-04-07T11:35:19.384Z,43.78
2023-04-07T11:38:08.237Z,45.43
2023-04-07T11:40:58.354Z,42.29
2023-04-07T11:43:47.840Z,43.13
2023-04-07T11:46:53.639Z,44.55
2023-04-07T11:49:47.481Z,43.40
2023-04-07T11:52:43.198Z,42.34
2023-04-07T11:55:32.146Z,43.94
2023-04-07T11:58:21.037Z,41.14
2023-04-07T12:01:10.235Z,42.10
2023-04-07T12:04:03.497Z,42.73
2023-04-07T12:06:52.398Z,40.57
2023-04-07T12:09:41.818Z,42.26
2023-04-07T12:12:33.254Z,42.35
2023-04-07T12:15:22.907Z,42.31
2023-04-07T12:18:18.262Z,42.19
2023-04-07T12:21:08.428Z,39.71
2023-04-07T12:23:57.204Z,40.92
2023-04-07T12:26:46.113Z,39.82
2023-04-07T12:29:36.659Z,39.88
2023-04-07T12:32:25.612Z,39.68
2023-04-07T12:35:14.426Z,40.23
2023-04-07T12:38:05.559Z,40.42
2023-04-07T12:40:54.405Z,38.39
2023-04-07T12:43:44.437Z,40.99
2023-04-07T12:46:35.274Z,40.61
2023-04-07T12:49:24.045Z,41.95
2023-04-07T12:52:12.762Z,42.14
2023-04-07T12:55:02.952Z,42.56
2023-04-07T12:57:51.797Z,40.22
2023-04-07T13:00:41.741Z,42.52
2023-04-07T13:03:30.981Z,41.25
2023-04-07T13:06:19.956Z,41.24
2023-04-07T13:09:08.715Z,41.29
2023-04-07T13:11:58.918Z,40.66
2023-04-07T13:14:59.184Z,40.48
2023-04-07T13:17:48.535Z,41.82
2023-04-07T13:20:37.802Z,43.28
2023-04-07T13:23:27.459Z,41.51
2023-04-07T13:26:16.268Z,42.38
2023-04-07T13:29:06.407Z,43.37
2023-04-07T13:31:55.186Z,42.20
2023-04-07T13:34:44.942Z,39.94
2023-04-07T13:37:33.867Z,41.33
2023-04-07T13:40:22.736Z,43.22
2023-04-07T13:43:12.269Z,41.08
2023-04-07T13:46:02.460Z,41.07
2023-04-07T13:48:51.800Z,40.72
2023-04-07T13:51:40.784Z,41.54
2023-04-07T13:54:30.182Z,42.63
2023-04-07T13:57:20.936Z,41.95
2023-04-07T14:00:11.175Z,41.76
2023-04-07T14:03:01.690Z,41.49
2023-04-07T14:05:50.748Z,44.02
2023-04-07T14:08:39.545Z,39.60
2023-04-07T14:11:28.418Z,41.98
2023-04-07T14:14:17.236Z,40.70
2023-04-07T14:17:06.172Z,40.71
2023-04-07T14:19:56.467Z,40.89
2023-04-07T14:22:45.487Z,40.96
2023-04-07T14:25:34.238Z,40.25
2023-04-07T14:28:23.098Z,40.14
2023-04-07T14:31:15.729Z,40.34
2023-04-07T14:34:04.681Z,41.14
2023-04-07T14:36:59.741Z,40.35
2023-04-07T14:40:01.326Z,40.58
2023-04-07T14:43:06.485Z,40.69
2023-04-07T14:45:56.289Z,41.90
2023-04-07T14:48:47.183Z,40.57
2023-04-07T14:51:36.278Z,41.62
2023-04-07T14:54:26.500Z,40.24
2023-04-07T14:57:16.631Z,40.98
2023-04-07T15:00:07.519Z,41.75
2023-04-07T15:02:56.708Z,41.67
2023-04-07T15:05:45.897Z,41.74
2023-04-07T15:08:34.692Z,41.97
2023-04-07T15:11:24.890Z,41.26
2023-04-07T15:14:15.488Z,41.52
2023-04-07T15:17:04.344Z,41.31
2023-04-07T15:19:53.124Z,42.50
2023-04-07T15:22:42.004Z,42.34
2023-04-07T15:25:30.795Z,43.02
2023-04-07T15:28:20.989Z,44.36
2023-04-07T15:31:09.985Z,45.03
2023-04-07T15:33:59.078Z,45.90
2023-04-07T15:36:47.819Z,45.05
2023-04-07T15:39:36.617Z,45.38
2023-04-07T15:42:25.556Z,45.92
2023-04-07T15:45:15.809Z,45.41
2023-04-07T15:48:04.747Z,45.27
2023-04-07T15:50:55.111Z,44.79
2023-04-07T15:53:43.941Z,44.44
2023-04-07T15:56:32.718Z,45.96
2023-04-07T15:59:21.513Z,45.15
2023-04-07T16:02:13.718Z,44.08
2023-04-07T16:05:03.862Z,44.04
2023-04-07T16:07:52.637Z,43.74
2023-04-07T16:10:41.465Z,43.54
2023-04-07T16:13:30.336Z,44.73
2023-04-07T16:16:19.952Z,43.69
2023-04-07T16:19:10.271Z,44.61
2023-04-07T16:21:59.108Z,45.49
2023-04-07T16:24:47.944Z,44.56
2023-04-07T16:27:37.446Z,45.50
2023-04-07T16:30:26.457Z,45.46
2023-04-07T16:33:15.465Z,45.82
2023-04-07T16:36:07.461Z,47.63
2023-04-07T16:38:57.605Z,46.33
2023-04-07T16:41:46.433Z,46.74
2023-04-07T16:44:35.303Z,47.46
2023-04-07T16:47:24.279Z,47.37
2023-04-07T16:50:13.168Z,48.67
2023-04-07T16:53:03.495Z,48.65
2023-04-07T16:55:52.298Z,48.47
2023-04-07T16:58:41.165Z,47.87
2023-04-07T17:01:30.620Z,48.23
2023-04-07T17:04:19.573Z,48.52
2023-04-07T17:07:08.588Z,49.02
2023-04-07T17:09:58.961Z,49.27
2023-04-07T17:12:53.084Z,48.84
2023-04-07T17:15:41.917Z,49.42
2023-04-07T17:18:30.917Z,50.48
2023-04-07T17:21:19.760Z,51.68
2023-04-07T17:24:08.759Z,52.35
2023-04-07T17:26:59.024Z,55.07
2023-04-07T17:29:47.851Z,55.37
2023-04-07T17:32:36.804Z,56.08
2023-04-07T17:35:25.750Z,58.55
2023-04-07T17:38:14.577Z,59.24
2023-04-07T17:41:03.425Z,60.77
2023-04-07T17:43:53.887Z,62.34
2023-04-07T17:46:42.778Z,64.48
2023-04-07T17:49:31.662Z,68.01
2023-04-07T17:52:20.824Z,70.41
2023-04-07T17:55:11.490Z,73.21
2023-04-07T17:58:02.053Z,75.65
2023-04-07T18:00:52.227Z,80.21
2023-04-07T18:03:41.144Z,87.02
2023-04-07T18:06:30.052Z,89.05
2023-04-07T18:09:18.996Z,95.35
2023-04-07T18:12:09.789Z,100.00
2023-04-07T18:14:58.750Z,100.00
2023-04-07T18:17:52.930Z,100.00
2023-04-07T18:20:42.178Z,100.00
2023-04-07T18:23:31.000Z,100.00
2023-04-07T18:26:19.863Z,100.00
2023-04-07T18:29:10.375Z,100.00
2023-04-07T18:31:59.198Z,100.00
2023-04-07T18:34:50.560Z,100.00
2023-04-07T18:37:39.363Z,100.00
2023-04-07T18:40:32.644Z,100.00
2023-04-07T18:43:21.669Z,100.00
2023-04-07T18:46:10.765Z,100.00
2023-04-07T18:48:59.556Z,100.00
2023-04-07T18:51:49.947Z,100.00
2023-04-07T18:54:38.794Z,100.00
2023-04-07T18:57:28.166Z,100.00
2023-04-07T19:00:17.339Z,100.00
2023-04-07T19:03:06.514Z,100.00
2023-04-07T19:05:55.559Z,100.00
2023-04-07T19:08:45.903Z,100.00
2023-04-07T19:11:35.578Z,100.00
2023-04-07T19:14:24.412Z,100.00
2023-04-07T19:17:13.334Z,100.00
2023-04-07T19:20:02.303Z,100.00
2023-04-07T19:22:51.507Z,100.00
2023-04-07T19:25:44.317Z,100.00
2023-04-07T19:28:34.778Z,100.00
2023-04-07T19:31:23.791Z,100.00
2023-04-07T19:34:12.564Z,100.00
2023-04-07T19:37:01.380Z,100.00
2023-04-07T19:40:01.637Z,100.00
2023-04-07T19:42:54.683Z,100.00
2023-04-07T19:45:43.648Z,100.00
2023-04-07T19:48:32.531Z,100.00
2023-04-07T19:51:21.354Z,100.00
2023-04-07T19:54:10.201Z,100.00
2023-04-07T19:56:59.274Z,100.00
2023-04-07T19:59:49.556Z,100.00
2023-04-07T20:02:38.837Z,100.00
2023-04-07T20:05:27.969Z,100.00
2023-04-07T20:08:16.763Z,100.00
2023-04-07T20:11:06.375Z,100.00
2023-04-07T20:13:55.144Z,100.00
2023-04-07T20:16:45.550Z,100.00
2023-04-07T20:19:34.432Z,100.00
2023-04-07T20:22:23.972Z,100.00
2023-04-07T20:25:13.627Z,100.00
2023-04-07T20:28:02.380Z,100.00
2023-04-07T20:30:51.471Z,100.00
2023-04-07T20:33:41.726Z,100.00
2023-04-07T20:36:31.386Z,100.00
2023-04-07T20:39:20.266Z,100.00
2023-04-07T20:42:09.109Z,100.00
2023-04-07T20:45:03.479Z,100.00
2023-04-07T20:47:52.289Z,100.00
2023-04-07T20:50:42.494Z,100.00
2023-04-07T20:53:31.419Z,100.00
2023-04-07T20:56:21.697Z,100.00
2023-04-07T20:59:10.558Z,100.00
2023-04-07T21:01:59.518Z,100.00
2023-04-07T21:04:48.475Z,100.00
2023-04-07T21:07:38.749Z,100.00
2023-04-07T21:10:27.777Z,100.00
2023-04-07T21:13:16.572Z,100.00
2023-04-07T21:16:05.714Z,100.00
2023-04-07T21:18:54.695Z,100.00
2023-04-07T21:21:43.494Z,100.00
2023-04-07T21:24:33.762Z,100.00
2023-04-07T21:27:22.785Z,100.00
2023-04-07T21:30:13.958Z,100.00
2023-04-07T21:33:03.234Z,100.00
2023-04-07T21:35:52.617Z,100.00
2023-04-07T21:38:41.823Z,100.00
2023-04-07T21:41:32.066Z,100.00
2023-04-07T21:44:21.458Z,100.00
2023-04-07T21:47:10.754Z,100.00
2023-04-07T21:49:59.771Z,100.00
2023-04-07T21:52:50.932Z,100.00
2023-04-07T21:55:39.713Z,100.00
2023-04-07T21:58:29.922Z,100.00
2023-04-07T22:01:19.066Z,100.00
2023-04-07T22:04:08.032Z,100.00
2023-04-07T22:06:58.127Z,100.00
2023-04-07T22:09:47.167Z,100.00
2023-04-07T22:12:36.522Z,100.00
2023-04-07T22:15:26.708Z,100.00
2023-04-07T22:18:15.698Z,100.00
2023-04-07T22:21:05.265Z,100.00
2023-04-07T22:23:54.200Z,100.00
2023-04-07T22:26:42.976Z,100.00
2023-04-07T22:29:31.806Z,100.00
2023-04-07T22:32:22.097Z,100.00
2023-04-07T22:35:11.825Z,100.00
2023-04-07T22:38:00.730Z,100.00
2023-04-07T22:40:49.578Z,100.00
2023-04-07T22:43:38.390Z,100.00
2023-04-07T22:46:27.259Z,100.00
2023-04-07T22:49:17.476Z,100.00
2023-04-07T22:52:06.625Z,100.00
2023-04-07T22:54:56.369Z,100.00
2023-04-07T22:57:45.506Z,100.00
2023-04-07T23:00:34.397Z,100.00
2023-04-07T23:03:23.369Z,100.00
2023-04-07T23:06:13.775Z,100.00
2023-04-07T23:09:02.692Z,100.00
2023-04-07T23:11:51.468Z,100.00
2023-04-07T23:14:40.331Z,100.00
2023-04-07T23:17:29.224Z,100.00
2023-04-07T23:20:18.446Z,100.00
2023-04-07T23:23:08.605Z,100.00
2023-04-07T23:25:57.526Z,100.00
2023-04-07T23:28:47.998Z,100.00
2023-04-07T23:31:37.039Z,100.00
2023-04-07T23:34:26.221Z,100.00
2023-04-07T23:37:16.830Z,100.00
2023-04-07T23:40:09.917Z,100.00
2023-04-07T23:42:58.713Z,100.00
2023-04-07T23:45:47.547Z,100.00
2023-04-07T23:48:36.764Z,100.00
2023-04-07T23:51:26.473Z,100.00
2023-04-07T23:54:15.324Z,100.00
2023-04-07T23:57:05.520Z,100.00
2023-04-07T23:59:54.354Z,100.00
